Time;durP1;ratioP1;P1;durP2;ratioP2;P2;SDS_P1;SDS_P2;PMS_P1;PMS_P2;Temp;Humidity;BMP_temperature;BMP_pressure;BME280_temperature;BME280_humidity;BME280_pressure;Samples;Min_cycle;Max_cycle;Signal;HPM_P1;HPM_P2
2021/12/24 00:00:09;;;;;;;23.50;15.00;;;;;;;-0.40;99.85;97737.64;102161;1316;75352;-82
2021/12/24 00:02:56;;;;;;;22.50;14.40;;;;;;;-0.40;99.81;97732.74;101872;1317;71124;-82
2021/12/24 00:05:24;;;;;;;19.40;13.70;;;;;;;-0.39;99.87;97723.84;102303;1317;72605;-83
2021/12/24 00:07:51;;;;;;;23.30;14.60;;;;;;;-0.39;100.00;97717.38;102315;1320;61330;-82
2021/12/24 00:10:18;;;;;;;18.80;13.10;;;;;;;-0.39;99.99;97711.96;102183;1316;61642;-82
2021/12/24 00:12:49;;;;;;;23.00;15.90;;;;;;;-0.39;100.00;97697.65;102190;1314;75790;-83
2021/12/24 00:18:10;;;;;;;19.60;14.50;;;;;;;-0.38;100.00;97685.73;102296;1310;73797;-82
2021/12/24 00:37:16;;;;;;;16.50;11.90;;;;;;;-0.36;100.00;97653.88;102419;1313;61388;-83
2021/12/24 00:39:52;;;;;;;16.60;12.80;;;;;;;-0.35;100.00;97650.86;102550;1310;75927;-82
2021/12/24 00:42:19;;;;;;;15.20;11.30;;;;;;;-0.36;100.00;97641.13;102553;1316;69460;-83
2021/12/24 00:44:46;;;;;;;16.90;13.40;;;;;;;-0.36;100.00;97637.67;102350;1313;74501;-82
2021/12/24 00:47:12;;;;;;;17.10;12.60;;;;;;;-0.36;100.00;97643.43;102625;1310;61403;-82
2021/12/24 00:49:39;;;;;;;15.50;11.70;;;;;;;-0.36;100.00;97637.48;102817;1310;61295;-84
2021/12/24 00:57:20;;;;;;;15.10;11.40;;;;;;;-0.39;100.00;97624.88;102308;1317;73157;-80
2021/12/24 00:59:48;;;;;;;17.80;13.70;;;;;;;-0.41;100.00;97620.42;102326;1310;61353;-80
2021/12/24 01:02:14;;;;;;;16.40;11.80;;;;;;;-0.41;100.00;97608.23;102324;1310;61251;-81
2021/12/24 01:04:41;;;;;;;19.30;13.00;;;;;;;-0.42;100.00;97600.61;102298;1310;61316;-83
2021/12/24 01:07:09;;;;;;;19.20;13.50;;;;;;;-0.42;100.00;97602.52;102280;1310;70701;-81
2021/12/24 01:09:36;;;;;;;17.60;12.40;;;;;;;-0.41;100.00;97603.02;102437;1310;74318;-81
2021/12/24 01:12:03;;;;;;;22.20;12.80;;;;;;;-0.40;100.00;97599.14;102329;1313;61205;-81
2021/12/24 01:14:30;;;;;;;21.90;15.10;;;;;;;-0.40;100.00;97603.98;102301;1310;61334;-81
2021/12/24 01:19:36;;;;;;;17.60;13.00;;;;;;;-0.38;100.00;97583.83;102299;1317;69339;-80
2021/12/24 01:38:26;;;;;;;16.40;13.20;;;;;;;-0.35;100.00;97569.02;102252;1310;61367;-81
2021/12/24 01:43:24;;;;;;;15.10;11.90;;;;;;;-0.33;100.00;97558.14;102387;1310;75297;-81
2021/12/24 01:45:54;;;;;;;15.40;11.20;;;;;;;-0.32;100.00;97550.94;102423;1310;69355;-81
2021/12/24 01:48:22;;;;;;;14.30;11.70;;;;;;;-0.30;100.00;97545.41;102472;1316;73743;-80
2021/12/24 01:50:50;;;;;;;16.60;11.70;;;;;;;-0.28;100.00;97542.20;102580;1310;61313;-81
2021/12/24 01:53:20;;;;;;;12.80;9.90;;;;;;;-0.27;100.00;97536.05;102309;1316;61337;-81
2021/12/24 01:55:50;;;;;;;13.60;10.80;;;;;;;-0.25;100.00;97532.63;102331;1317;76507;-81
2021/12/24 01:58:25;;;;;;;13.10;10.40;;;;;;;-0.23;100.00;97519.46;102489;1310;69505;-81
2021/12/24 02:00:55;;;;;;;14.10;10.60;;;;;;;-0.22;100.00;97516.41;102456;1310;73260;-80
2021/12/24 02:03:22;;;;;;;13.60;10.60;;;;;;;-0.21;100.00;97512.02;102510;1310;61309;-81
2021/12/24 02:05:49;;;;;;;14.60;11.10;;;;;;;-0.19;100.00;97511.08;102728;1317;62276;-81
2021/12/24 02:08:17;;;;;;;15.40;11.40;;;;;;;-0.17;100.00;97515.86;102805;1314;74148;-80
2021/12/24 02:10:44;;;;;;;16.60;11.90;;;;;;;-0.16;100.00;97510.23;103235;1310;69053;-81
2021/12/24 02:13:13;;;;;;;15.10;11.70;;;;;;;-0.15;100.00;97507.73;102963;1310;72687;-81
2021/12/24 02:29:38;;;;;;;12.50;10.10;;;;;;;-0.05;100.00;97470.42;102353;1311;61345;-81
2021/12/24 02:32:05;;;;;;;11.20;9.00;;;;;;;-0.03;100.00;97474.85;102316;1310;61971;-78
2021/12/24 02:34:32;;;;;;;12.30;9.70;;;;;;;-0.02;100.00;97472.34;101919;1316;74998;-79
2021/12/24 02:36:58;;;;;;;11.60;9.90;;;;;;;-0.01;100.00;97471.59;102435;1310;69373;-80
2021/12/24 02:39:25;;;;;;;13.80;10.30;;;;;;;0.01;100.00;97468.21;102340;1310;61444;-79
2021/12/24 02:41:52;;;;;;;11.70;9.90;;;;;;;0.03;100.00;97463.04;102280;1314;61427;-80
2021/12/24 02:44:19;;;;;;;12.10;9.30;;;;;;;0.03;100.00;97461.96;102284;1316;61300;-80
2021/12/24 02:54:55;;;;;;;11.50;9.30;;;;;;;0.08;100.00;97448.85;102267;1316;61335;-78
2021/12/24 02:57:26;;;;;;;12.30;9.90;;;;;;;0.09;100.00;97430.98;102389;1317;61301;-80
2021/12/24 03:02:58;;;;;;;11.20;9.60;;;;;;;0.13;100.00;97440.02;102321;1316;69177;-77
2021/12/24 03:05:25;;;;;;;11.50;9.30;;;;;;;0.15;100.00;97442.36;102309;1316;72697;-79
2021/12/24 03:07:52;;;;;;;11.00;9.70;;;;;;;0.17;100.00;97437.70;102311;1316;61377;-78
2021/12/24 03:10:21;;;;;;;12.30;9.50;;;;;;;0.19;100.00;97440.39;102267;1310;62246;-78
2021/12/24 03:12:51;;;;;;;10.90;8.70;;;;;;;0.21;100.00;97438.02;102069;1316;75197;-78
2021/12/24 03:15:19;;;;;;;10.50;8.10;;;;;;;0.25;100.00;97433.63;102298;1310;67041;-76
2021/12/24 03:17:51;;;;;;;14.80;11.80;;;;;;;0.27;100.00;97434.94;102369;1310;73033;-78
2021/12/24 03:20:19;;;;;;;13.20;10.70;;;;;;;0.29;100.00;97430.81;102369;1313;61358;-77
2021/12/24 03:25:14;;;;;;;13.30;10.10;;;;;;;0.33;100.00;97420.82;102541;1310;75275;-77
2021/12/24 03:27:41;;;;;;;14.30;11.70;;;;;;;0.35;100.00;97416.73;102377;1310;69538;-77
2021/12/24 03:30:09;;;;;;;12.40;10.20;;;;;;;0.36;100.00;97414.39;102289;1310;74362;-76
2021/12/24 03:32:36;;;;;;;12.80;10.80;;;;;;;0.37;100.00;97411.01;102235;1310;61371;-77
2021/12/24 03:35:04;;;;;;;12.50;9.70;;;;;;;0.39;100.00;97403.23;102230;1313;61346;-77
2021/12/24 03:37:31;;;;;;;12.20;10.50;;;;;;;0.41;100.00;97408.55;102113;1318;75380;-77
2021/12/24 03:39:57;;;;;;;12.50;10.30;;;;;;;0.42;100.00;97403.05;102375;1310;69022;-78
2021/12/24 03:42:24;;;;;;;11.30;10.00;;;;;;;0.43;100.00;97407.38;102328;1311;72656;-77
2021/12/24 03:44:58;;;;;;;12.50;10.40;;;;;;;0.44;100.00;97404.88;102008;1314;61328;-77
2021/12/24 03:47:27;;;;;;;10.30;9.20;;;;;;;0.47;100.00;97403.19;102288;1316;61670;-77
2021/12/24 03:50:03;;;;;;;12.40;9.40;;;;;;;0.48;100.00;97395.30;102298;1316;75383;-77
2021/12/24 03:54:58;;;;;;;11.10;8.70;;;;;;;0.49;100.00;97394.52;102320;1316;61199;-78
2021/12/24 03:57:30;;;;;;;12.30;9.90;;;;;;;0.50;100.00;97395.34;102321;1316;61240;-80
2021/12/24 04:00:00;;;;;;;12.00;10.20;;;;;;;0.51;100.00;97390.56;102022;1319;61422;-77
2021/12/24 04:02:26;;;;;;;10.90;9.30;;;;;;;0.53;100.00;97391.34;102391;1316;75755;-77
2021/12/24 04:04:53;;;;;;;9.50;8.30;;;;;;;0.56;100.00;97389.77;102299;1316;69441;-76
2021/12/24 04:07:19;;;;;;;11.90;9.10;;;;;;;0.57;100.00;97389.87;102254;1310;73339;-77
2021/12/24 04:09:56;;;;;;;14.40;9.30;;;;;;;0.58;100.00;97387.05;102270;1316;61441;-76
2021/12/24 04:12:23;;;;;;;11.20;10.00;;;;;;;0.59;100.00;97384.88;102306;1317;62138;-77
2021/12/24 04:14:51;;;;;;;11.30;9.70;;;;;;;0.61;100.00;97377.29;102161;1317;74885;-78
2021/12/24 04:17:18;;;;;;;16.00;10.80;;;;;;;0.64;100.00;97371.17;102235;1310;69551;-78
2021/12/24 04:25:16;;;;;;;14.20;10.30;;;;;;;0.67;100.00;97363.16;102350;1310;61268;-77
2021/12/24 04:27:42;;;;;;;12.00;10.10;;;;;;;0.68;100.00;97362.23;102296;1317;75335;-76
2021/12/24 04:30:13;;;;;;;11.60;9.40;;;;;;;0.70;100.00;97364.96;102415;1316;70912;-77
2021/12/24 04:32:53;;;;;;;13.50;11.30;;;;;;;0.71;100.00;97369.25;102479;1310;73777;-76
2021/12/24 04:51:37;;;;;;;14.00;12.30;;;;;;;0.73;100.00;97354.46;101862;1317;61463;-77
2021/12/24 05:05:06;;;;;;;16.50;13.60;;;;;;;0.81;100.00;97338.46;102551;1310;62333;-78
2021/12/24 05:10:08;;;;;;;15.50;12.40;;;;;;;0.86;100.00;97350.77;102487;1315;69633;-75
2021/12/24 05:12:35;;;;;;;14.90;12.70;;;;;;;0.88;100.00;97357.10;102486;1317;73701;-77
2021/12/24 05:15:04;;;;;;;15.40;12.40;;;;;;;0.92;100.00;97360.95;102173;1313;61315;-76
2021/12/24 05:17:47;;;;;;;18.00;13.90;;;;;;;0.94;100.00;97344.20;102695;1316;61221;-76
2021/12/24 05:22:59;;;;;;;16.10;13.10;;;;;;;1.00;100.00;97351.23;102610;1317;70547;-77
2021/12/24 05:25:26;;;;;;;14.50;12.20;;;;;;;1.02;100.00;97351.49;102396;1316;61382;-77
2021/12/24 05:27:55;;;;;;;14.60;12.30;;;;;;;1.03;100.00;97351.05;102599;1310;61430;-77
2021/12/24 05:30:23;;;;;;;17.40;13.50;;;;;;;1.05;100.00;97342.41;102585;1316;61430;-78
2021/12/24 05:32:50;;;;;;;18.40;15.10;;;;;;;1.07;100.00;97340.54;102730;1310;76540;-77
2021/12/24 05:35:16;;;;;;;15.60;12.60;;;;;;;1.08;100.00;97346.25;102667;1310;68484;-76
2021/12/24 05:37:43;;;;;;;15.90;13.70;;;;;;;1.11;100.00;97345.57;102855;1316;73463;-77
2021/12/24 05:40:10;;;;;;;17.40;14.40;;;;;;;1.14;100.00;97345.04;103001;1315;61216;-77
2021/12/24 05:42:36;;;;;;;18.50;15.20;;;;;;;1.16;100.00;97339.86;103005;1318;61514;-76
2021/12/24 05:45:07;;;;;;;18.20;14.90;;;;;;;1.17;100.00;97338.77;103326;1316;75425;-77
2021/12/24 05:47:34;;;;;;;18.10;14.00;;;;;;;1.18;100.00;97335.56;103575;1316;69375;-76
2021/12/24 05:50:01;;;;;;;19.90;15.50;;;;;;;1.20;100.00;97337.36;103879;1310;73530;-79
2021/12/24 05:52:30;;;;;;;23.10;17.80;;;;;;;1.23;100.00;97338.27;105452;1319;59059;-77
2021/12/24 05:54:57;;;;;;;21.90;16.20;;;;;;;1.26;100.00;97337.23;105111;1319;60823;-77
2021/12/24 05:57:23;;;;;;;20.30;16.20;;;;;;;1.28;100.00;97340.23;105123;1313;72454;-77
2021/12/24 05:59:50;;;;;;;22.30;17.20;;;;;;;1.31;100.00;97335.35;105246;1314;69377;-77
2021/12/24 06:02:16;;;;;;;21.20;16.50;;;;;;;1.33;100.00;97333.36;105182;1316;59662;-78
2021/12/24 06:04:43;;;;;;;18.80;16.00;;;;;;;1.34;100.00;97333.96;103353;1317;61398;-79
2021/12/24 06:07:10;;;;;;;23.20;18.30;;;;;;;1.37;100.00;97337.67;102560;1310;61523;-79
2021/12/24 06:09:37;;;;;;;20.50;17.30;;;;;;;1.37;100.00;97340.27;102611;1316;76271;-78
2021/12/24 06:12:03;;;;;;;19.70;16.50;;;;;;;1.37;100.00;97339.91;102579;1316;69224;-78
2021/12/24 06:14:30;;;;;;;22.20;17.20;;;;;;;1.38;100.00;97337.06;102580;1316;73379;-78
2021/12/24 06:17:09;;;;;;;17.90;15.50;;;;;;;1.40;100.00;97341.70;102479;1316;61304;-78
2021/12/24 06:19:36;;;;;;;21.50;17.50;;;;;;;1.40;100.00;97334.84;102253;1316;61451;-78
2021/12/24 06:22:03;;;;;;;23.40;18.10;;;;;;;1.41;100.00;97338.49;102321;1316;75272;-76
2021/12/24 06:24:30;;;;;;;24.20;19.30;;;;;;;1.41;100.00;97338.62;102301;1317;70374;-78
2021/12/24 06:26:57;;;;;;;22.50;17.20;;;;;;;1.41;100.00;97338.62;102266;1316;73502;-78
2021/12/24 06:29:23;;;;;;;21.90;17.00;;;;;;;1.41;100.00;97340.57;102306;1316;61438;-77
2021/12/24 06:31:50;;;;;;;22.50;17.30;;;;;;;1.42;100.00;97342.09;102299;1316;61317;-78
2021/12/24 06:34:18;;;;;;;24.20;19.20;;;;;;;1.45;100.00;97339.48;102253;1312;75647;-78
2021/12/24 06:36:48;;;;;;;24.80;19.10;;;;;;;1.45;100.00;97337.38;102316;1314;69844;-77
2021/12/24 06:39:15;;;;;;;23.40;19.30;;;;;;;1.46;100.00;97340.09;102198;1318;73634;-77
2021/12/24 06:41:43;;;;;;;23.00;18.30;;;;;;;1.50;100.00;97345.80;102259;1310;61351;-77
2021/12/24 06:44:11;;;;;;;24.10;17.90;;;;;;;1.52;100.00;97337.64;102440;1316;62816;-77
2021/12/24 06:46:40;;;;;;;22.80;18.20;;;;;;;1.54;100.00;97339.48;102520;1316;75257;-76
2021/12/24 06:49:08;;;;;;;20.80;15.80;;;;;;;1.55;100.00;97340.29;102412;1316;68651;-78
2021/12/24 06:51:34;;;;;;;20.80;18.10;;;;;;;1.58;100.00;97341.15;102131;1313;74366;-78
2021/12/24 06:54:02;;;;;;;23.90;19.90;;;;;;;1.60;100.00;97344.89;102299;1317;61352;-77
2021/12/24 06:56:29;;;;;;;21.50;18.10;;;;;;;1.62;100.00;97348.80;102244;1316;62060;-79
2021/12/24 06:58:55;;;;;;;23.40;17.90;;;;;;;1.63;100.00;97355.56;102304;1310;74662;-79
2021/12/24 07:01:22;;;;;;;25.90;18.30;;;;;;;1.65;100.00;97347.06;102454;1316;61457;-78
2021/12/24 07:03:48;;;;;;;23.30;19.20;;;;;;;1.67;100.00;97340.61;102250;1316;73279;-78
2021/12/24 07:06:15;;;;;;;26.00;18.20;;;;;;;1.70;100.00;97346.94;102284;1317;61368;-77
2021/12/24 07:08:42;;;;;;;27.50;20.90;;;;;;;1.74;100.00;97349.02;102273;1316;62372;-77
2021/12/24 07:11:08;;;;;;;23.40;18.40;;;;;;;1.78;100.00;97341.95;102276;1317;76467;-78
2021/12/24 07:13:35;;;;;;;27.10;19.40;;;;;;;1.82;100.00;97344.70;102304;1316;61419;-77
2021/12/24 07:16:02;;;;;;;26.50;21.90;;;;;;;1.86;100.00;97339.36;102215;1316;73431;-76
2021/12/24 07:18:29;;;;;;;25.10;19.30;;;;;;;1.90;100.00;97343.34;102481;1313;61353;-77
2021/12/24 07:20:55;;;;;;;26.80;19.70;;;;;;;1.93;100.00;97351.41;102605;1316;61289;-78
2021/12/24 07:23:22;;;;;;;28.50;19.80;;;;;;;1.96;100.00;97348.41;102643;1317;74646;-79
2021/12/24 07:25:49;;;;;;;24.70;18.50;;;;;;;2.00;100.00;97347.13;103808;1313;61225;-76
2021/12/24 07:28:15;;;;;;;24.20;18.30;;;;;;;2.04;100.00;97346.70;103879;1310;73520;-76
2021/12/24 07:30:42;;;;;;;33.20;21.30;;;;;;;2.08;100.00;97347.89;103531;1310;60038;-77
2021/12/24 07:33:09;;;;;;;25.60;18.30;;;;;;;2.13;100.00;97346.39;102537;1314;61241;-78
2021/12/24 07:35:35;;;;;;;22.50;16.90;;;;;;;2.16;100.00;97356.33;102127;1318;74628;-77
2021/12/24 07:38:02;;;;;;;22.90;18.30;;;;;;;2.22;100.00;97353.88;102363;1319;61403;-78
2021/12/24 07:40:29;;;;;;;23.60;17.90;;;;;;;2.29;100.00;97349.82;102391;1316;72642;-77
2021/12/24 07:42:55;;;;;;;22.50;16.70;;;;;;;2.36;100.00;97344.83;102354;1314;61419;-77
2021/12/24 07:45:22;;;;;;;21.70;17.30;;;;;;;2.43;100.00;97341.58;102309;1316;61365;-76
2021/12/24 07:48:09;;;;;;;18.20;16.30;;;;;;;2.48;100.00;97347.09;102525;1311;75261;-76
2021/12/24 07:53:07;;;;;;;21.00;16.70;;;;;;;2.53;100.00;97353.27;102433;1316;72620;-78
2021/12/24 07:55:36;;;;;;;19.60;15.50;;;;;;;2.54;100.00;97352.31;102209;1314;204243;-77
2021/12/24 07:58:08;;;;;;;19.60;15.00;;;;;;;2.56;100.00;97346.42;102283;1314;61499;-76
2021/12/24 08:00:37;;;;;;;22.00;15.60;;;;;;;2.60;100.00;97338.48;102070;1317;75326;-80
2021/12/24 08:03:04;;;;;;;26.50;16.20;;;;;;;2.61;100.00;97334.31;102385;1311;70310;-78
2021/12/24 08:05:35;;;;;;;21.00;15.50;;;;;;;2.63;100.00;97334.74;102301;1316;74457;-77
2021/12/24 08:08:02;;;;;;;18.40;14.90;;;;;;;2.67;100.00;97331.75;102485;1310;61389;-76
2021/12/24 08:10:31;;;;;;;23.10;16.30;;;;;;;2.67;100.00;97331.52;102422;1317;61648;-76
2021/12/24 08:12:57;;;;;;;25.40;17.50;;;;;;;2.68;100.00;97341.29;102430;1316;76409;-77
2021/12/24 08:15:24;;;;;;;23.40;15.70;;;;;;;2.69;100.00;97337.89;102299;1314;61300;-78
2021/12/24 08:17:51;;;;;;;41.20;20.20;;;;;;;2.71;100.00;97343.20;101989;1317;73634;-79
2021/12/24 08:20:22;;;;;;;26.50;15.90;;;;;;;2.72;100.00;97351.08;102390;1316;61407;-78
2021/12/24 08:22:50;;;;;;;31.60;19.90;;;;;;;2.72;100.00;97344.53;102332;1316;61434;-81
2021/12/24 08:25:17;;;;;;;35.50;24.50;;;;;;;2.74;100.00;97341.23;102490;1310;75533;-77
2021/12/24 08:27:44;;;;;;;36.90;27.20;;;;;;;2.77;100.00;97335.27;102416;1316;68411;-77
2021/12/24 08:30:11;;;;;;;34.00;22.20;;;;;;;2.81;100.00;97332.92;102307;1316;72459;-77
2021/12/24 08:32:40;;;;;;;28.40;21.40;;;;;;;2.86;100.00;97334.77;102459;1316;61309;-78
2021/12/24 08:35:11;;;;;;;25.80;18.30;;;;;;;2.91;100.00;97325.17;102345;1310;62026;-77
2021/12/24 08:37:39;;;;;;;20.50;16.60;;;;;;;2.96;100.00;97329.17;102316;1317;75289;-77
2021/12/24 08:40:06;;;;;;;16.60;14.30;;;;;;;3.02;100.00;97333.40;102374;1311;69306;-77
2021/12/24 08:42:33;;;;;;;17.00;14.60;;;;;;;3.07;100.00;97331.52;102400;1317;73219;-77
2021/12/24 08:45:00;;;;;;;19.00;16.10;;;;;;;3.13;100.00;97336.40;102389;1316;61356;-76
2021/12/24 08:47:26;;;;;;;19.60;15.40;;;;;;;3.17;100.00;97329.64;102299;1313;61358;-79
2021/12/24 08:49:53;;;;;;;18.30;15.00;;;;;;;3.21;100.00;97326.59;102359;1311;76152;-77
2021/12/24 08:52:19;;;;;;;16.20;14.50;;;;;;;3.24;100.00;97323.05;102307;1314;61401;-78
2021/12/24 08:54:46;;;;;;;19.50;15.50;;;;;;;3.25;100.00;97310.84;102303;1317;61322;-78
2021/12/24 08:57:12;;;;;;;17.10;14.60;;;;;;;3.28;100.00;97312.41;102196;1313;61350;-77
2021/12/24 08:59:39;;;;;;;20.20;15.00;;;;;;;3.33;100.00;97322.83;102319;1317;61531;-77
2021/12/24 09:02:06;;;;;;;20.30;16.00;;;;;;;3.35;100.00;97324.95;102290;1313;76178;-78
2021/12/24 09:04:34;;;;;;;21.80;17.20;;;;;;;3.37;100.00;97320.48;102337;1313;69224;-77
2021/12/24 09:07:01;;;;;;;16.90;14.40;;;;;;;3.41;100.00;97314.96;102356;1316;74349;-78
2021/12/24 09:09:29;;;;;;;20.20;15.80;;;;;;;3.45;100.00;97305.00;102312;1317;61398;-76
2021/12/24 09:11:56;;;;;;;19.40;15.00;;;;;;;3.51;100.00;97302.34;102313;1314;62156;-78
2021/12/24 09:14:23;;;;;;;20.70;17.40;;;;;;;3.55;100.00;97306.66;102299;1311;75294;-78
2021/12/24 09:16:50;;;;;;;20.80;16.30;;;;;;;3.58;100.00;97306.13;101956;1313;68827;-79
2021/12/24 09:19:22;;;;;;;23.60;18.20;;;;;;;3.59;100.00;97299.36;102260;1316;61235;-78
2021/12/24 09:21:49;;;;;;;25.50;21.30;;;;;;;3.61;100.00;97298.32;102307;1310;61361;-78
2021/12/24 09:24:18;;;;;;;26.40;23.50;;;;;;;3.66;100.00;97291.85;102385;1314;61393;-77
2021/12/24 09:26:45;;;;;;;24.50;21.90;;;;;;;3.71;100.00;97292.41;102246;1313;75153;-78
2021/12/24 09:29:11;;;;;;;19.80;17.10;;;;;;;3.73;100.00;97289.80;102334;1316;69135;-78
2021/12/24 09:31:38;;;;;;;21.50;16.50;;;;;;;3.74;100.00;97287.82;102455;1311;73247;-78
2021/12/24 09:34:05;;;;;;;18.00;15.50;;;;;;;3.73;100.00;97288.25;102448;1311;61313;-79
2021/12/24 09:36:32;;;;;;;21.50;16.90;;;;;;;3.71;100.00;97285.73;102380;1310;62042;-77
2021/12/24 09:39:04;;;;;;;22.50;18.60;;;;;;;3.71;100.00;97281.54;102286;1316;75486;-76
2021/12/24 09:41:32;;;;;;;18.20;14.30;;;;;;;3.70;100.00;97279.81;102367;1314;69471;-77
2021/12/24 09:44:00;;;;;;;22.90;17.80;;;;;;;3.72;100.00;97271.60;102499;1314;72298;-85
2021/12/24 09:46:28;;;;;;;23.90;20.90;;;;;;;3.73;100.00;97271.50;102537;1313;61377;-83
2021/12/24 09:48:55;;;;;;;31.80;21.00;;;;;;;3.73;100.00;97272.56;102642;1317;61273;-85
2021/12/24 09:51:26;;;;;;;40.30;23.40;;;;;;;3.73;100.00;97276.98;102614;1313;75442;-86
2021/12/24 09:53:54;;;;;;;32.20;20.80;;;;;;;3.74;100.00;97270.96;102777;1311;68841;-83
2021/12/24 09:56:22;;;;;;;25.40;19.30;;;;;;;3.74;100.00;97272.52;102572;1310;73208;-84
2021/12/24 09:58:49;;;;;;;23.10;17.70;;;;;;;3.74;100.00;97269.92;102512;1310;61343;-84
2021/12/24 10:01:39;;;;;;;29.10;21.50;;;;;;;3.73;100.00;97269.64;102675;1310;61068;-84
2021/12/24 10:04:10;;;;;;;21.80;16.80;;;;;;;3.73;100.00;97267.34;102598;1311;75456;-84
2021/12/24 10:06:38;;;;;;;25.00;18.60;;;;;;;3.75;100.00;97263.54;102693;1316;69186;-84
2021/12/24 10:09:12;;;;;;;23.10;17.10;;;;;;;3.76;100.00;97256.94;102641;1310;73756;-84
2021/12/24 10:11:49;;;;;;;19.00;16.70;;;;;;;3.78;100.00;97246.09;102675;1317;61393;-85
2021/12/24 10:14:20;;;;;;;20.40;15.50;;;;;;;3.81;100.00;97243.96;102794;1310;62165;-85
2021/12/24 10:16:50;;;;;;;19.80;15.30;;;;;;;3.85;100.00;97247.89;102705;1311;76406;-85
2021/12/24 10:19:19;;;;;;;16.80;13.90;;;;;;;3.88;100.00;97247.72;102540;1310;70571;-83
2021/12/24 10:21:56;;;;;;;18.40;14.40;;;;;;;3.89;100.00;97242.52;103155;1316;73232;-85
2021/12/24 10:24:26;;;;;;;19.20;14.00;;;;;;;3.90;100.00;97233.52;102779;1316;61330;-86
2021/12/24 10:26:56;;;;;;;18.00;14.10;;;;;;;3.92;100.00;97230.58;102853;1311;61308;-84
2021/12/24 10:29:43;;;;;;;15.00;13.00;;;;;;;3.94;100.00;97225.34;102238;1316;74597;-82
2021/12/24 10:32:20;;;;;;;18.30;13.20;;;;;;;3.97;100.00;97226.16;102479;1310;69346;-83
2021/12/24 10:34:47;;;;;;;15.80;13.10;;;;;;;4.00;100.00;97228.07;102378;1310;73315;-83
2021/12/24 10:37:26;;;;;;;15.60;12.10;;;;;;;4.03;100.00;97231.21;102089;1316;61292;-81
2021/12/24 10:39:55;;;;;;;20.00;15.10;;;;;;;4.07;100.00;97224.30;102479;1317;61218;-84
2021/12/24 10:42:37;;;;;;;29.10;16.80;;;;;;;4.09;100.00;97224.11;102363;1317;76586;-84
2021/12/24 10:45:17;;;;;;;35.80;18.80;;;;;;;4.11;100.00;97218.92;102402;1316;69651;-80
2021/12/24 10:47:43;;;;;;;29.60;16.30;;;;;;;4.12;100.00;97210.36;102608;1310;71705;-84
2021/12/24 10:53:01;;;;;;;22.60;16.10;;;;;;;4.20;100.00;97202.81;102632;1310;61286;-85
2021/12/24 10:55:44;;;;;;;20.00;15.40;;;;;;;4.23;100.00;97201.73;102564;1316;76839;-83
2021/12/24 10:58:23;;;;;;;18.90;13.90;;;;;;;4.27;100.00;97205.67;102131;1314;69284;-83
2021/12/24 11:00:56;;;;;;;19.80;14.60;;;;;;;4.28;100.00;97209.05;102636;1310;72714;-84
2021/12/24 11:03:26;;;;;;;18.20;13.20;;;;;;;4.28;100.00;97218.73;102636;1310;61289;-84
2021/12/24 11:06:08;;;;;;;18.00;12.90;;;;;;;4.27;100.00;97222.69;102261;1312;61525;-82
2021/12/24 11:08:35;;;;;;;20.80;15.10;;;;;;;4.27;100.00;97215.18;102368;1310;76697;-84
2021/12/24 11:11:05;;;;;;;21.10;14.70;;;;;;;4.26;100.00;97206.94;102582;1310;70286;-84
2021/12/24 11:13:39;;;;;;;18.00;13.50;;;;;;;4.26;100.00;97196.23;102369;1316;74274;-83
2021/12/24 11:16:09;;;;;;;17.70;13.20;;;;;;;4.27;100.00;97183.16;102576;1310;61323;-84
2021/12/24 11:18:39;;;;;;;16.50;12.30;;;;;;;4.31;100.00;97173.57;102585;1310;62161;-84
2021/12/24 11:21:07;;;;;;;18.10;13.80;;;;;;;4.36;100.00;97177.08;102716;1310;73634;-82
2021/12/24 11:23:37;;;;;;;15.90;11.40;;;;;;;4.40;100.00;97177.69;102609;1310;69615;-83
2021/12/24 11:26:14;;;;;;;16.40;11.80;;;;;;;4.47;100.00;97172.96;102568;1310;73632;-82
2021/12/24 11:28:42;;;;;;;16.30;12.10;;;;;;;4.56;100.00;97174.20;102483;1310;61386;-84
2021/12/24 11:31:13;;;;;;;20.40;13.60;;;;;;;4.64;100.00;97170.88;102554;1310;61412;-84
2021/12/24 11:33:42;;;;;;;17.70;13.20;;;;;;;4.69;100.00;97173.88;102554;1310;73333;-84
2021/12/24 11:36:12;;;;;;;17.10;12.50;;;;;;;4.70;100.00;97175.34;102372;1311;68715;-84
2021/12/24 11:38:42;;;;;;;14.50;11.60;;;;;;;4.70;100.00;97173.75;102502;1311;73609;-82
2021/12/24 11:41:13;;;;;;;18.10;12.50;;;;;;;4.68;100.00;97173.91;102901;1316;61298;-83
2021/12/24 11:43:49;;;;;;;16.80;11.40;;;;;;;4.69;100.00;97164.55;102759;1310;61616;-83
2021/12/24 11:46:19;;;;;;;14.20;10.50;;;;;;;4.70;100.00;97166.70;102797;1316;75597;-82
2021/12/24 11:48:48;;;;;;;17.90;12.70;;;;;;;4.71;100.00;97164.89;102566;1310;70314;-83
2021/12/24 11:51:20;;;;;;;15.80;11.40;;;;;;;4.73;100.00;97162.78;102535;1310;73913;-84
2021/12/24 11:53:51;;;;;;;16.00;11.80;;;;;;;4.74;100.00;97162.38;102929;1310;61329;-86
2021/12/24 11:56:23;;;;;;;17.70;13.90;;;;;;;4.73;100.00;97161.55;102666;1310;61218;-83
2021/12/24 11:58:56;;;;;;;16.50;12.60;;;;;;;4.72;100.00;97152.49;102883;1311;76218;-87
2021/12/24 12:01:27;;;;;;;16.90;13.10;;;;;;;4.72;100.00;97150.21;102924;1310;70270;-83
2021/12/24 12:03:58;;;;;;;14.20;10.50;;;;;;;4.73;100.00;97146.30;102783;1311;73572;-85
2021/12/24 12:06:25;;;;;;;14.10;10.70;;;;;;;4.75;100.00;97142.23;102801;1310;61393;-84
2021/12/24 12:08:55;;;;;;;15.30;10.70;;;;;;;4.80;100.00;97137.66;102774;1313;61309;-83
2021/12/24 12:11:25;;;;;;;13.80;10.30;;;;;;;4.83;100.00;97138.31;103094;1310;75935;-85
2021/12/24 12:14:03;;;;;;;15.00;10.50;;;;;;;4.84;100.00;97129.77;103051;1311;70074;-84
2021/12/24 12:16:39;;;;;;;15.30;10.50;;;;;;;4.86;100.00;97116.70;102825;1310;73159;-84
2021/12/24 12:19:16;;;;;;;12.10;9.90;;;;;;;4.89;100.00;97108.02;102817;1313;61308;-84
2021/12/24 12:25:29;;;;;;;13.00;8.90;;;;;;;5.01;100.00;97108.69;103238;1313;76496;-84
2021/12/24 12:27:58;;;;;;;12.20;9.60;;;;;;;5.04;100.00;97116.84;103289;1310;70557;-83
2021/12/24 12:30:30;;;;;;;12.90;9.70;;;;;;;5.06;100.00;97119.87;103030;1313;72587;-86
2021/12/24 12:33:14;;;;;;;13.70;10.50;;;;;;;5.09;100.00;97120.92;103683;1310;61248;-84
2021/12/24 12:35:48;;;;;;;15.30;10.50;;;;;;;5.10;100.00;97122.58;105219;1313;60883;-82
2021/12/24 12:38:30;;;;;;;14.30;12.10;;;;;;;5.15;100.00;97127.52;105347;1310;75300;-86
2021/12/24 12:41:35;;;;;;;12.30;9.10;;;;;;;5.18;100.00;97134.13;105171;1316;70121;-80
2021/12/24 12:44:05;;;;;;;15.60;9.60;;;;;;;5.23;100.00;97143.98;104446;1319;73462;-83
2021/12/24 12:46:37;;;;;;;12.10;9.20;;;;;;;5.27;100.00;97139.11;104720;1318;61122;-82
2021/12/24 12:49:07;;;;;;;13.00;9.60;;;;;;;5.29;100.00;97144.23;104431;1317;61330;-84
2021/12/24 12:51:52;;;;;;;11.20;8.90;;;;;;;5.32;100.00;97146.48;104571;1310;75578;-82
2021/12/24 12:54:49;;;;;;;11.80;9.20;;;;;;;5.35;100.00;97145.55;103638;1310;69173;-85
2021/12/24 12:57:36;;;;;;;12.40;9.70;;;;;;;5.39;100.00;97140.34;104185;1316;73541;-86
2021/12/24 13:00:19;;;;;;;15.40;10.10;;;;;;;5.42;100.00;97139.02;103442;1310;59892;-86
2021/12/24 13:03:16;;;;;;;12.00;9.10;;;;;;;5.46;100.00;97141.91;102705;1310;62153;-84
2021/12/24 13:05:43;;;;;;;15.10;9.70;;;;;;;5.50;100.00;97153.41;102640;1311;74278;-86
2021/12/24 13:08:16;;;;;;;14.30;9.60;;;;;;;5.52;100.00;97159.95;102558;1310;69595;-85
2021/12/24 13:11:05;;;;;;;12.20;9.30;;;;;;;5.54;100.00;97150.13;102735;1310;73642;-85
2021/12/24 13:13:42;;;;;;;12.50;9.30;;;;;;;5.55;100.00;97144.55;102838;1310;61237;-85
2021/12/24 13:16:16;;;;;;;11.70;8.80;;;;;;;5.62;100.00;97149.67;102246;1314;62273;-86
2021/12/24 13:18:52;;;;;;;11.20;8.90;;;;;;;5.67;100.00;97150.35;102815;1310;74449;-83
2021/12/24 13:24:15;;;;;;;10.70;7.90;;;;;;;5.75;100.00;97153.44;102486;1317;71623;-85
2021/12/24 13:26:44;;;;;;;11.10;8.50;;;;;;;5.77;100.00;97152.41;102866;1310;61364;-85